Gwyme, Virginia
Current Conditions -  °F | °C
As of 2:55 PM on Thursday 30 Oct 2014 (Local Time) from KW75 Reporting Station
Clear Clear  
Wind Chill: 16°   Ceiling: Unl
Heat Index: 16°   Visibility: 10mi
Dew Point:   Wind: 6mph
Humidity: 48%   Direction: 340°NNW
Pressure: 30"   Gusts: NA
Location:  37.4982°N, 76.2873°W
Report Text: KW75 301855Z AUTO 34005KT 10SM CLR 16/05 A3000 RMK AO1 T01610051
Loading
Personal Weather Stations






























Interactive Weather Map
Tropical Storm Tracking
New forecast layout! Learn more

10-Day Weather Forecast

Advertisements
Track Severe Weather on mobile